Time;durP1;ratioP1;P1;durP2;ratioP2;P2;SDS_P1;SDS_P2;PMS_P1;PMS_P2;Temp;Humidity;BMP_temperature;BMP_pressure;BME280_temperature;BME280_humidity;BME280_pressure;Samples;Min_cycle;Max_cycle;Signal;HPM_P1;HPM_P2
2023/09/14 00:01:11;;;;;;;1.93;1.73;;;;;;;;;;5073166;28;20475;-68
2023/09/14 00:03:39;;;;;;;4.77;2.00;;;;;;;;;;5073319;28;20897;-68
2023/09/14 00:06:06;;;;;;;3.20;2.00;;;;;;;;;;5073215;28;20485;-68
2023/09/14 00:08:33;;;;;;;2.57;1.80;;;;;;;;;;5073402;28;20447;-68
2023/09/14 00:11:00;;;;;;;6.70;1.80;;;;;;;;;;5073364;28;20535;-68
2023/09/14 00:13:27;;;;;;;3.10;1.80;;;;;;;;;;5073278;28;20447;-68
2023/09/14 00:15:54;;;;;;;3.53;1.73;;;;;;;;;;5073262;28;20538;-68
2023/09/14 00:18:21;;;;;;;5.83;1.80;;;;;;;;;;5073045;28;20483;-68
2023/09/14 00:20:52;;;;;;;6.00;1.87;;;;;;;;;;5073076;28;20872;-68
2023/09/14 00:23:19;;;;;;;3.20;1.70;;;;;;;;;;5073299;28;20454;-68
2023/09/14 00:25:47;;;;;;;4.60;2.30;;;;;;;;;;5073379;28;20444;-68
2023/09/14 00:28:13;;;;;;;5.30;1.70;;;;;;;;;;5073079;28;20483;-68
2023/09/14 00:30:40;;;;;;;6.07;2.00;;;;;;;;;;5072643;28;21038;-68
2023/09/14 00:33:08;;;;;;;2.10;1.90;;;;;;;;;;5072909;28;20474;-68
2023/09/14 00:35:35;;;;;;;4.13;1.80;;;;;;;;;;5072876;28;20483;-68
2023/09/14 00:38:03;;;;;;;2.20;1.70;;;;;;;;;;5072981;28;20541;-68
2023/09/14 00:40:30;;;;;;;2.63;1.93;;;;;;;;;;5072879;28;20531;-68
2023/09/14 00:42:57;;;;;;;2.77;1.87;;;;;;;;;;5072930;28;20501;-68
2023/09/14 00:45:24;;;;;;;3.23;1.70;;;;;;;;;;5072892;28;20802;-68
2023/09/14 00:47:52;;;;;;;5.17;1.80;;;;;;;;;;5072848;28;20530;-68
2023/09/14 00:50:20;;;;;;;3.30;2.20;;;;;;;;;;5073049;28;20447;-68
2023/09/14 00:52:50;;;;;;;3.07;2.30;;;;;;;;;;5073196;28;20500;-68
2023/09/14 00:55:18;;;;;;;4.93;2.03;;;;;;;;;;5073062;28;20530;-68
2023/09/14 00:57:45;;;;;;;3.43;1.90;;;;;;;;;;5072784;28;20483;-68
2023/09/14 01:00:13;;;;;;;2.57;1.90;;;;;;;;;;5072507;28;20823;-68
2023/09/14 01:02:41;;;;;;;2.10;1.83;;;;;;;;;;5072647;28;20930;-68
2023/09/14 01:05:08;;;;;;;2.53;1.60;;;;;;;;;;5072828;28;20534;-68
2023/09/14 01:07:35;;;;;;;3.17;2.47;;;;;;;;;;5072754;28;20871;-68
2023/09/14 01:10:02;;;;;;;3.37;2.23;;;;;;;;;;5072653;28;20446;-68
2023/09/14 01:12:30;;;;;;;2.13;1.93;;;;;;;;;;5072571;28;20557;-68
2023/09/14 01:14:59;;;;;;;2.00;1.80;;;;;;;;;;5072516;28;20450;-68
2023/09/14 01:17:32;;;;;;;3.57;1.80;;;;;;;;;;5072717;28;20934;-68
2023/09/14 01:20:03;;;;;;;2.17;1.90;;;;;;;;;;5072478;28;20954;-68
2023/09/14 01:22:36;;;;;;;3.17;2.30;;;;;;;;;;5072601;28;20439;-68
2023/09/14 01:25:08;;;;;;;2.83;2.60;;;;;;;;;;5072489;28;20447;-68
2023/09/14 01:27:36;;;;;;;1.97;1.67;;;;;;;;;;5072415;28;20530;-68
2023/09/14 01:30:04;;;;;;;3.00;2.20;;;;;;;;;;5072601;28;20447;-68
2023/09/14 01:32:31;;;;;;;3.83;2.10;;;;;;;;;;5072613;28;20444;-68
2023/09/14 01:34:58;;;;;;;4.43;2.40;;;;;;;;;;5072448;28;20534;-68
2023/09/14 01:37:25;;;;;;;4.00;2.00;;;;;;;;;;5072543;28;20447;-68
2023/09/14 01:39:53;;;;;;;5.43;2.30;;;;;;;;;;5072211;28;20532;-68
2023/09/14 01:42:21;;;;;;;3.40;1.83;;;;;;;;;;5072202;28;20446;-68
2023/09/14 01:44:50;;;;;;;4.63;2.10;;;;;;;;;;5076055;28;20526;-68
2023/09/14 01:47:17;;;;;;;3.37;2.23;;;;;;;;;;5075938;28;20533;-68
2023/09/14 01:49:44;;;;;;;2.53;1.70;;;;;;;;;;5075850;28;20462;-68
2023/09/14 01:52:11;;;;;;;2.23;2.03;;;;;;;;;;5075778;28;20534;-67
2023/09/14 01:54:38;;;;;;;2.93;2.10;;;;;;;;;;5075657;28;20526;-68
2023/09/14 01:57:05;;;;;;;4.67;2.30;;;;;;;;;;5075793;28;20530;-68
2023/09/14 01:59:32;;;;;;;2.80;2.00;;;;;;;;;;5075455;28;20577;-68
2023/09/14 02:02:00;;;;;;;2.43;2.23;;;;;;;;;;5075651;28;20971;-68
2023/09/14 02:04:27;;;;;;;2.20;1.97;;;;;;;;;;5075560;28;20443;-67
2023/09/14 02:06:54;;;;;;;2.10;1.90;;;;;;;;;;5075438;28;20534;-68
2023/09/14 02:09:21;;;;;;;3.10;2.00;;;;;;;;;;5075619;28;20448;-68
2023/09/14 02:11:48;;;;;;;2.87;1.87;;;;;;;;;;5075623;28;20451;-68
2023/09/14 02:14:14;;;;;;;4.23;1.87;;;;;;;;;;5075476;28;20447;-68
2023/09/14 02:16:41;;;;;;;4.50;2.53;;;;;;;;;;5075408;28;20550;-68
2023/09/14 02:19:09;;;;;;;3.73;2.30;;;;;;;;;;5075292;28;20579;-68
2023/09/14 02:21:36;;;;;;;2.60;2.00;;;;;;;;;;5075127;28;20538;-67
2023/09/14 02:24:03;;;;;;;3.17;2.10;;;;;;;;;;5075286;28;20909;-68
2023/09/14 02:26:30;;;;;;;3.70;2.30;;;;;;;;;;5075302;28;20530;-68
2023/09/14 02:28:57;;;;;;;3.33;2.33;;;;;;;;;;5075314;28;20443;-68
2023/09/14 02:31:25;;;;;;;4.67;2.70;;;;;;;;;;5075091;28;20814;-68
2023/09/14 02:33:52;;;;;;;2.20;1.83;;;;;;;;;;5075049;28;20451;-68
2023/09/14 02:36:21;;;;;;;2.70;2.10;;;;;;;;;;5074901;28;20534;-67
2023/09/14 02:38:48;;;;;;;3.83;1.90;;;;;;;;;;5075045;28;20483;-68
2023/09/14 02:41:15;;;;;;;4.00;2.10;;;;;;;;;;5075218;28;20444;-68
2023/09/14 02:43:42;;;;;;;2.50;2.30;;;;;;;;;;5074978;28;20554;-68
2023/09/14 02:46:09;;;;;;;5.27;2.30;;;;;;;;;;5074776;28;20444;-68
2023/09/14 02:48:35;;;;;;;5.17;2.10;;;;;;;;;;5074631;28;20534;-68
2023/09/14 02:51:03;;;;;;;2.23;2.03;;;;;;;;;;5074861;28;20535;-68
2023/09/14 02:53:31;;;;;;;2.23;1.90;;;;;;;;;;5074612;28;20780;-68
2023/09/14 02:55:58;;;;;;;3.10;2.30;;;;;;;;;;5074683;28;20906;-68
2023/09/14 02:58:25;;;;;;;3.63;2.50;;;;;;;;;;5074448;28;20483;-68
2023/09/14 03:00:52;;;;;;;4.90;2.50;;;;;;;;;;5074374;28;20529;-68
2023/09/14 03:03:19;;;;;;;3.87;2.47;;;;;;;;;;5074330;28;20487;-68
2023/09/14 03:05:48;;;;;;;7.03;2.20;;;;;;;;;;5074582;28;20534;-68
2023/09/14 03:08:14;;;;;;;3.30;2.40;;;;;;;;;;5074439;28;20448;-68
2023/09/14 03:10:43;;;;;;;3.53;2.07;;;;;;;;;;5074212;28;20526;-68
2023/09/14 03:13:11;;;;;;;2.67;2.47;;;;;;;;;;5074303;28;20446;-68
2023/09/14 03:15:37;;;;;;;4.20;2.07;;;;;;;;;;5074193;28;20455;-68
2023/09/14 03:18:05;;;;;;;2.43;2.27;;;;;;;;;;5073932;28;20530;-68
2023/09/14 03:20:32;;;;;;;3.37;2.60;;;;;;;;;;5074380;28;20443;-68
2023/09/14 03:22:59;;;;;;;4.20;2.80;;;;;;;;;;5074177;28;20999;-68
2023/09/14 03:25:26;;;;;;;6.87;2.57;;;;;;;;;;5074061;28;20450;-68
2023/09/14 03:27:54;;;;;;;3.13;2.30;;;;;;;;;;5073995;28;20479;-68
2023/09/14 03:30:21;;;;;;;3.50;2.43;;;;;;;;;;5073817;28;20475;-68
2023/09/14 03:32:48;;;;;;;2.17;2.00;;;;;;;;;;5073999;28;20458;-68
2023/09/14 03:35:15;;;;;;;3.17;2.87;;;;;;;;;;5073899;28;20458;-68
2023/09/14 03:37:42;;;;;;;3.70;2.50;;;;;;;;;;5073847;28;20443;-68
2023/09/14 03:40:09;;;;;;;2.67;2.27;;;;;;;;;;5073571;28;21002;-68
2023/09/14 03:42:36;;;;;;;2.37;2.17;;;;;;;;;;5073536;28;20443;-68
2023/09/14 03:45:05;;;;;;;2.53;2.30;;;;;;;;;;5073564;28;20882;-68
2023/09/14 03:47:32;;;;;;;5.27;2.40;;;;;;;;;;5073819;28;20850;-68
2023/09/14 03:49:59;;;;;;;4.77;3.20;;;;;;;;;;5073455;28;20526;-67
2023/09/14 03:52:26;;;;;;;3.93;3.10;;;;;;;;;;5073518;28;20876;-68
2023/09/14 03:54:53;;;;;;;2.90;2.70;;;;;;;;;;5073392;28;20440;-68
2023/09/14 03:57:20;;;;;;;4.60;2.60;;;;;;;;;;5073285;28;20451;-68
2023/09/14 03:59:47;;;;;;;3.87;2.80;;;;;;;;;;5073219;28;20487;-68
2023/09/14 04:02:16;;;;;;;4.83;2.70;;;;;;;;;;5073392;28;20466;-68
2023/09/14 04:04:43;;;;;;;5.80;3.00;;;;;;;;;;5073334;28;20447;-68
2023/09/14 04:07:10;;;;;;;3.53;2.50;;;;;;;;;;5072627;28;20935;-68
2023/09/14 04:09:37;;;;;;;3.80;2.50;;;;;;;;;;5073209;28;20443;-67
2023/09/14 04:12:04;;;;;;;3.83;2.30;;;;;;;;;;5073132;28;20497;-67
2023/09/14 04:14:31;;;;;;;3.47;3.00;;;;;;;;;;5073314;28;20530;-67
2023/09/14 04:17:00;;;;;;;2.50;2.30;;;;;;;;;;5073312;28;20501;-68
2023/09/14 04:19:28;;;;;;;2.87;2.50;;;;;;;;;;5073151;28;20483;-68
2023/09/14 04:21:56;;;;;;;2.90;2.60;;;;;;;;;;5073105;28;20776;-68
2023/09/14 04:24:23;;;;;;;3.57;2.63;;;;;;;;;;5073104;28;20482;-68
2023/09/14 04:26:50;;;;;;;2.57;2.00;;;;;;;;;;5072943;28;21021;-67
2023/09/14 04:29:16;;;;;;;11.30;3.30;;;;;;;;;;5073193;28;20450;-68
2023/09/14 04:31:43;;;;;;;4.90;2.70;;;;;;;;;;5072888;28;20746;-67
2023/09/14 04:34:10;;;;;;;3.80;2.70;;;;;;;;;;5072965;28;20446;-67
2023/09/14 04:36:39;;;;;;;3.83;2.80;;;;;;;;;;5072887;28;20450;-68
2023/09/14 04:39:06;;;;;;;2.87;2.10;;;;;;;;;;5072702;28;20834;-68
2023/09/14 04:41:33;;;;;;;7.80;3.20;;;;;;;;;;5073116;28;20475;-68
2023/09/14 04:44:00;;;;;;;8.27;2.73;;;;;;;;;;5072921;28;20935;-67
2023/09/14 04:46:27;;;;;;;3.10;2.80;;;;;;;;;;5072743;28;20449;-67
2023/09/14 04:48:55;;;;;;;5.20;2.90;;;;;;;;;;5072744;28;20486;-67
2023/09/14 04:51:23;;;;;;;4.47;2.50;;;;;;;;;;5072669;28;20483;-67
2023/09/14 04:53:51;;;;;;;4.23;3.00;;;;;;;;;;5072655;28;20487;-67
2023/09/14 04:56:18;;;;;;;3.10;2.80;;;;;;;;;;5072917;28;20447;-67
2023/09/14 04:58:45;;;;;;;3.33;3.00;;;;;;;;;;5072715;28;20471;-67
2023/09/14 05:01:12;;;;;;;4.83;2.80;;;;;;;;;;5072348;28;20475;-68
2023/09/14 05:03:40;;;;;;;3.77;2.50;;;;;;;;;;5072673;28;20526;-67
2023/09/14 05:06:07;;;;;;;3.50;2.10;;;;;;;;;;5072469;28;20443;-68
2023/09/14 05:08:34;;;;;;;11.00;3.10;;;;;;;;;;5072740;28;20526;-67
2023/09/14 05:11:03;;;;;;;3.67;2.63;;;;;;;;;;5072696;28;20877;-67
2023/09/14 05:13:30;;;;;;;4.27;3.07;;;;;;;;;;5072596;28;20535;-68
2023/09/14 05:15:57;;;;;;;3.67;2.20;;;;;;;;;;5072549;28;20444;-68
2023/09/14 05:18:24;;;;;;;3.23;2.97;;;;;;;;;;5074127;28;20450;-67
2023/09/14 05:20:51;;;;;;;3.30;2.30;;;;;;;;;;5076175;28;20485;-67
2023/09/14 05:23:18;;;;;;;5.43;3.63;;;;;;;;;;5076510;28;20477;-67
2023/09/14 05:25:45;;;;;;;4.77;2.53;;;;;;;;;;5076307;28;20484;-67
2023/09/14 05:28:14;;;;;;;4.43;2.80;;;;;;;;;;5076281;28;20474;-67
2023/09/14 05:30:42;;;;;;;2.63;2.30;;;;;;;;;;5076044;28;20447;-67
2023/09/14 05:33:09;;;;;;;4.10;2.87;;;;;;;;;;5075963;28;20439;-67
2023/09/14 05:35:36;;;;;;;5.00;2.87;;;;;;;;;;5075814;28;20455;-67
2023/09/14 05:38:03;;;;;;;2.60;2.37;;;;;;;;;;5076007;28;20443;-67
2023/09/14 05:40:30;;;;;;;5.03;3.07;;;;;;;;;;5075923;28;20570;-67
2023/09/14 05:42:57;;;;;;;5.00;2.80;;;;;;;;;;5075927;28;20534;-67
2023/09/14 05:45:25;;;;;;;5.63;3.27;;;;;;;;;;5075824;28;20546;-68
2023/09/14 05:47:52;;;;;;;3.20;2.90;;;;;;;;;;5075679;28;20534;-67
2023/09/14 05:50:19;;;;;;;4.90;3.00;;;;;;;;;;5075951;28;20554;-67
2023/09/14 05:52:46;;;;;;;4.43;2.90;;;;;;;;;;5075874;28;20449;-67
2023/09/14 05:55:13;;;;;;;3.40;2.70;;;;;;;;;;5075623;28;20447;-68
2023/09/14 05:57:40;;;;;;;3.77;2.43;;;;;;;;;;5075671;28;20530;-67
2023/09/14 06:00:13;;;;;;;7.10;2.93;;;;;;;;;;5075304;28;20915;-68
2023/09/14 06:02:41;;;;;;;3.80;3.30;;;;;;;;;;5075588;28;20475;-68
2023/09/14 06:05:08;;;;;;;3.77;3.47;;;;;;;;;;5075527;28;20497;-68
2023/09/14 06:07:36;;;;;;;8.57;2.97;;;;;;;;;;5075584;28;20989;-68
2023/09/14 06:10:03;;;;;;;6.07;3.30;;;;;;;;;;5075536;28;20512;-68
2023/09/14 06:12:30;;;;;;;3.53;3.23;;;;;;;;;;5075347;28;20456;-68
2023/09/14 06:14:57;;;;;;;6.30;2.80;;;;;;;;;;5075231;28;20459;-67
2023/09/14 06:17:24;;;;;;;4.00;3.03;;;;;;;;;;5075457;28;20455;-67
2023/09/14 06:19:53;;;;;;;4.00;2.83;;;;;;;;;;5075463;28;21016;-68
2023/09/14 06:22:20;;;;;;;4.03;2.43;;;;;;;;;;5075403;28;20538;-67
2023/09/14 06:24:47;;;;;;;4.30;2.57;;;;;;;;;;5075302;28;20483;-68
2023/09/14 06:27:14;;;;;;;5.07;3.60;;;;;;;;;;5075026;28;20443;-68
2023/09/14 06:29:41;;;;;;;5.17;3.43;;;;;;;;;;5074608;28;20478;-68
2023/09/14 06:32:08;;;;;;;3.17;2.97;;;;;;;;;;5075078;28;20539;-68
2023/09/14 06:34:35;;;;;;;4.73;2.93;;;;;;;;;;5074987;28;20874;-67
2023/09/14 06:37:04;;;;;;;3.10;2.60;;;;;;;;;;5074925;28;20530;-67
2023/09/14 06:39:30;;;;;;;3.17;2.97;;;;;;;;;;5074783;28;20472;-67
2023/09/14 06:41:57;;;;;;;2.77;2.30;;;;;;;;;;5074651;28;20447;-67
2023/09/14 06:44:25;;;;;;;3.40;2.53;;;;;;;;;;5074648;28;20532;-67
2023/09/14 06:46:52;;;;;;;3.77;2.83;;;;;;;;;;5074759;28;20443;-66
2023/09/14 06:49:19;;;;;;;3.13;2.60;;;;;;;;;;5074663;28;20547;-66
2023/09/14 06:51:46;;;;;;;3.90;3.17;;;;;;;;;;5074669;28;20539;-67
2023/09/14 06:54:14;;;;;;;3.60;2.90;;;;;;;;;;5074543;28;20885;-66
2023/09/14 06:56:41;;;;;;;2.60;2.23;;;;;;;;;;5074382;28;20534;-66
2023/09/14 06:59:08;;;;;;;4.30;2.57;;;;;;;;;;5074274;28;20962;-66
2023/09/14 07:01:35;;;;;;;10.50;4.53;;;;;;;;;;5074295;28;20474;-66
2023/09/14 07:04:02;;;;;;;6.87;2.60;;;;;;;;;;5074432;28;20447;-66
2023/09/14 07:06:29;;;;;;;4.37;2.70;;;;;;;;;;5074282;28;20542;-66
2023/09/14 07:08:56;;;;;;;10.60;3.07;;;;;;;;;;5074273;28;20449;-66
2023/09/14 07:11:25;;;;;;;3.30;2.40;;;;;;;;;;5074149;28;20479;-66
2023/09/14 07:13:52;;;;;;;4.83;2.57;;;;;;;;;;5074367;28;20447;-66
2023/09/14 07:16:19;;;;;;;3.40;2.20;;;;;;;;;;5074061;28;20450;-66
2023/09/14 07:18:47;;;;;;;5.40;2.57;;;;;;;;;;5074478;28;20830;-66
2023/09/14 07:21:14;;;;;;;3.23;2.10;;;;;;;;;;5073915;28;20914;-66
2023/09/14 07:23:41;;;;;;;4.87;2.10;;;;;;;;;;5073907;28;20789;-66
2023/09/14 07:26:08;;;;;;;2.70;1.67;;;;;;;;;;5074093;28;20531;-66
2023/09/14 07:28:37;;;;;;;2.57;2.37;;;;;;;;;;5074039;28;20451;-66
2023/09/14 07:31:05;;;;;;;4.50;2.20;;;;;;;;;;5073990;28;20592;-66
2023/09/14 07:33:32;;;;;;;9.50;2.67;;;;;;;;;;5073786;28;20530;-66
2023/09/14 07:36:00;;;;;;;5.43;2.27;;;;;;;;;;5073639;28;20911;-66
2023/09/14 07:38:27;;;;;;;2.00;1.80;;;;;;;;;;5073627;28;20527;-66
2023/09/14 07:40:54;;;;;;;2.20;1.70;;;;;;;;;;5072951;28;20564;-66
2023/09/14 07:43:21;;;;;;;2.90;1.70;;;;;;;;;;5073746;28;20473;-66
2023/09/14 07:45:49;;;;;;;4.60;2.47;;;;;;;;;;5073602;28;20447;-67
2023/09/14 07:48:16;;;;;;;1.80;1.70;;;;;;;;;;5073474;28;20475;-66
2023/09/14 07:50:43;;;;;;;2.70;2.00;;;;;;;;;;5073286;28;20546;-66
2023/09/14 07:53:10;;;;;;;3.60;2.03;;;;;;;;;;5073509;28;20478;-67
2023/09/14 07:55:38;;;;;;;2.07;1.83;;;;;;;;;;5073442;28;20534;-66
2023/09/14 07:58:06;;;;;;;1.90;1.70;;;;;;;;;;5073170;28;20451;-66
2023/09/14 08:00:33;;;;;;;4.60;1.90;;;;;;;;;;5073036;28;20523;-66
2023/09/14 08:03:01;;;;;;;1.87;1.73;;;;;;;;;;5072518;28;20939;-66
2023/09/14 08:05:29;;;;;;;2.40;2.00;;;;;;;;;;5072727;28;20534;-66
2023/09/14 08:07:55;;;;;;;3.70;1.63;;;;;;;;;;5072847;28;20450;-66
2023/09/14 08:10:22;;;;;;;2.70;1.90;;;;;;;;;;5070168;28;20432;-67
2023/09/14 08:12:49;;;;;;;2.30;1.40;;;;;;;;;;5072705;28;20439;-66
2023/09/14 08:15:16;;;;;;;1.83;1.63;;;;;;;;;;5072680;28;20530;-66
2023/09/14 08:17:44;;;;;;;2.53;1.80;;;;;;;;;;5069958;28;20747;-66
2023/09/14 08:20:13;;;;;;;3.30;1.60;;;;;;;;;;5072774;28;20459;-66
2023/09/14 08:22:40;;;;;;;4.00;1.83;;;;;;;;;;5072278;28;20873;-66
2023/09/14 08:25:07;;;;;;;2.37;1.60;;;;;;;;;;5072666;28;20607;-65
2023/09/14 08:27:35;;;;;;;2.33;1.50;;;;;;;;;;5072331;28;20442;-66
2023/09/14 08:30:04;;;;;;;2.90;1.60;;;;;;;;;;5072508;28;20842;-66
2023/09/14 08:32:31;;;;;;;3.03;1.90;;;;;;;;;;5072302;28;20954;-65
2023/09/14 08:34:59;;;;;;;3.67;1.70;;;;;;;;;;5069980;28;20811;-65
2023/09/14 08:37:27;;;;;;;3.13;1.77;;;;;;;;;;5072442;28;20443;-66
2023/09/14 08:39:54;;;;;;;2.87;1.93;;;;;;;;;;5072499;28;20467;-66
2023/09/14 08:42:24;;;;;;;1.60;1.50;;;;;;;;;;5072497;28;20440;-66
2023/09/14 08:44:51;;;;;;;3.00;1.87;;;;;;;;;;5072432;28;20850;-66
2023/09/14 08:47:19;;;;;;;2.43;1.80;;;;;;;;;;5069678;28;20530;-66
2023/09/14 08:49:47;;;;;;;4.80;1.80;;;;;;;;;;5072290;28;20981;-66
2023/09/14 08:52:17;;;;;;;6.00;1.93;;;;;;;;;;5074082;28;20478;-66
2023/09/14 08:54:45;;;;;;;2.93;1.43;;;;;;;;;;5076869;28;20479;-65
2023/09/14 08:57:13;;;;;;;1.90;1.47;;;;;;;;;;5076731;28;20949;-66
2023/09/14 08:59:40;;;;;;;3.50;1.30;;;;;;;;;;5076356;28;20558;-66
2023/09/14 09:02:09;;;;;;;2.20;1.40;;;;;;;;;;5076666;28;20534;-66
2023/09/14 09:04:36;;;;;;;2.30;1.50;;;;;;;;;;5076589;28;20538;-67
2023/09/14 09:07:03;;;;;;;1.40;1.30;;;;;;;;;;5076416;28;20853;-66
2023/09/14 09:09:30;;;;;;;4.17;1.37;;;;;;;;;;5076299;28;20447;-66
2023/09/14 09:11:58;;;;;;;1.73;1.20;;;;;;;;;;5076201;28;20582;-66
2023/09/14 09:14:30;;;;;;;4.67;1.80;;;;;;;;;;5076685;28;20538;-67
2023/09/14 09:16:57;;;;;;;3.13;1.67;;;;;;;;;;5076627;28;20443;-66
2023/09/14 09:19:24;;;;;;;4.73;2.00;;;;;;;;;;5076439;28;20446;-66
2023/09/14 09:21:51;;;;;;;6.30;1.60;;;;;;;;;;5076141;28;21004;-66
2023/09/14 09:24:26;;;;;;;2.07;1.33;;;;;;;;;;5076169;28;20533;-66
2023/09/14 09:26:55;;;;;;;3.77;1.30;;;;;;;;;;5076173;28;20443;-66
2023/09/14 09:29:23;;;;;;;1.50;0.87;;;;;;;;;;5076158;28;20452;-66
2023/09/14 09:31:51;;;;;;;1.80;1.10;;;;;;;;;;5076114;28;20513;-66
2023/09/14 09:34:22;;;;;;;2.70;1.20;;;;;;;;;;5076060;28;20447;-66
2023/09/14 09:36:49;;;;;;;2.47;1.27;;;;;;;;;;5075942;28;20474;-66
2023/09/14 09:39:16;;;;;;;3.33;1.50;;;;;;;;;;5075856;28;20489;-67
2023/09/14 09:41:46;;;;;;;1.30;1.10;;;;;;;;;;5075854;28;20578;-66
2023/09/14 09:44:15;;;;;;;2.00;1.73;;;;;;;;;;5075939;28;20447;-66
2023/09/14 09:46:44;;;;;;;3.07;1.70;;;;;;;;;;5075854;28;20534;-66
2023/09/14 09:49:18;;;;;;;2.17;1.33;;;;;;;;;;5075823;28;20470;-66
2023/09/14 09:51:45;;;;;;;2.53;1.60;;;;;;;;;;5075530;28;20450;-66
2023/09/14 09:54:12;;;;;;;1.80;1.30;;;;;;;;;;5075781;28;20454;-66
2023/09/14 09:56:40;;;;;;;1.87;1.50;;;;;;;;;;5075515;28;20509;-67
2023/09/14 09:59:10;;;;;;;3.30;1.40;;;;;;;;;;5075461;28;20475;-67
2023/09/14 10:01:37;;;;;;;2.40;1.57;;;;;;;;;;5075288;28;20523;-67
2023/09/14 10:04:10;;;;;;;1.87;1.50;;;;;;;;;;5074463;28;20534;-66
2023/09/14 10:06:37;;;;;;;2.57;1.37;;;;;;;;;;5075588;28;20530;-67
2023/09/14 10:09:08;;;;;;;3.27;1.10;;;;;;;;;;5075565;28;20443;-66
2023/09/14 10:11:36;;;;;;;1.77;1.67;;;;;;;;;;5075469;28;20538;-66
2023/09/14 10:14:03;;;;;;;2.13;1.23;;;;;;;;;;5075362;28;20450;-67
2023/09/14 10:16:31;;;;;;;2.53;1.47;;;;;;;;;;5075077;28;20444;-67
2023/09/14 10:18:59;;;;;;;3.20;1.50;;;;;;;;;;5075284;28;20469;-66
2023/09/14 10:21:29;;;;;;;1.50;1.40;;;;;;;;;;5075213;28;20568;-67
2023/09/14 10:23:56;;;;;;;1.80;1.40;;;;;;;;;;5075244;28;20444;-66
2023/09/14 10:26:22;;;;;;;1.63;1.40;;;;;;;;;;5075173;28;20481;-66
2023/09/14 10:28:50;;;;;;;1.47;1.37;;;;;;;;;;5075218;28;20459;-67
2023/09/14 10:31:18;;;;;;;1.83;1.63;;;;;;;;;;5075034;28;20486;-66
2023/09/14 10:33:46;;;;;;;2.13;1.40;;;;;;;;;;5074373;28;20538;-67
2023/09/14 10:36:13;;;;;;;2.23;1.20;;;;;;;;;;5072148;28;20470;-67
2023/09/14 10:38:43;;;;;;;6.63;1.57;;;;;;;;;;5074423;28;20443;-67
2023/09/14 10:41:11;;;;;;;1.70;1.60;;;;;;;;;;5074379;28;20482;-66
2023/09/14 10:43:39;;;;;;;3.70;2.03;;;;;;;;;;5074608;28;20446;-67
2023/09/14 10:46:07;;;;;;;2.67;1.47;;;;;;;;;;5074446;28;20454;-67
2023/09/14 10:48:35;;;;;;;6.40;1.50;;;;;;;;;;5074096;28;20904;-67
2023/09/14 10:51:02;;;;;;;1.80;1.50;;;;;;;;;;5074420;28;20440;-67
2023/09/14 10:53:30;;;;;;;3.57;1.80;;;;;;;;;;5074137;28;20439;-67
2023/09/14 10:55:58;;;;;;;6.53;1.73;;;;;;;;;;5074130;28;20444;-67
2023/09/14 10:58:25;;;;;;;2.47;1.37;;;;;;;;;;5074002;28;20852;-67
2023/09/14 11:00:58;;;;;;;1.67;1.57;;;;;;;;;;5071268;28;20471;-67
2023/09/14 11:03:25;;;;;;;1.70;1.60;;;;;;;;;;5074603;28;20807;-68
2023/09/14 11:05:52;;;;;;;1.83;1.73;;;;;;;;;;5074402;28;20539;-67
2023/09/14 11:08:20;;;;;;;2.03;1.73;;;;;;;;;;5074224;28;21045;-67
2023/09/14 11:11:05;;;;;;;1.87;1.63;;;;;;;;;;5074200;28;20550;-67
2023/09/14 11:13:33;;;;;;;1.80;1.70;;;;;;;;;;5074276;28;20538;-67
2023/09/14 11:16:12;;;;;;;2.53;1.50;;;;;;;;;;5073956;28;20853;-67
2023/09/14 11:18:51;;;;;;;3.10;2.10;;;;;;;;;;5074045;28;20534;-67
2023/09/14 11:21:42;;;;;;;1.73;1.63;;;;;;;;;;5073890;28;21104;-67
2023/09/14 11:24:09;;;;;;;4.43;1.60;;;;;;;;;;5074038;28;20825;-67
2023/09/14 11:26:38;;;;;;;2.00;1.63;;;;;;;;;;5073868;28;20945;-67
2023/09/14 11:29:07;;;;;;;2.83;1.50;;;;;;;;;;5073876;28;20802;-67
2023/09/14 11:31:34;;;;;;;1.93;1.60;;;;;;;;;;5073582;28;20452;-67
2023/09/14 11:34:05;;;;;;;2.00;1.57;;;;;;;;;;5073926;28;20479;-68
2023/09/14 11:36:33;;;;;;;2.00;1.43;;;;;;;;;;5073875;28;20486;-68
2023/09/14 11:39:00;;;;;;;2.00;1.50;;;;;;;;;;5073764;28;20781;-68
2023/09/14 11:41:37;;;;;;;2.40;1.40;;;;;;;;;;5073552;28;20479;-67
2023/09/14 11:44:04;;;;;;;2.43;1.60;;;;;;;;;;5073505;28;20439;-67
2023/09/14 11:46:33;;;;;;;1.93;1.40;;;;;;;;;;5073707;28;20784;-67
2023/09/14 11:49:00;;;;;;;3.00;1.90;;;;;;;;;;5073648;28;20526;-67
2023/09/14 11:51:28;;;;;;;2.57;1.70;;;;;;;;;;5072733;28;20542;-67
2023/09/14 11:53:56;;;;;;;3.97;1.60;;;;;;;;;;5071531;28;20444;-67
2023/09/14 11:56:23;;;;;;;3.00;1.40;;;;;;;;;;5071310;28;20479;-67
2023/09/14 11:58:50;;;;;;;1.90;1.30;;;;;;;;;;5071225;28;20768;-67
2023/09/14 12:01:18;;;;;;;2.73;1.47;;;;;;;;;;5071234;28;20542;-67
2023/09/14 12:03:46;;;;;;;1.87;1.20;;;;;;;;;;5071551;28;20878;-67
2023/09/14 12:06:14;;;;;;;2.90;2.47;;;;;;;;;;5071474;28;20486;-67
2023/09/14 12:08:47;;;;;;;2.20;1.33;;;;;;;;;;5071282;28;20466;-67
2023/09/14 12:11:14;;;;;;;4.60;1.80;;;;;;;;;;5072028;28;20447;-67
2023/09/14 12:13:49;;;;;;;3.27;1.60;;;;;;;;;;5073350;28;20501;-67
2023/09/14 12:16:19;;;;;;;2.77;1.50;;;;;;;;;;5073334;28;20806;-67
2023/09/14 12:18:48;;;;;;;3.10;1.70;;;;;;;;;;5073295;28;20509;-67
2023/09/14 12:21:15;;;;;;;2.57;1.60;;;;;;;;;;5073018;28;20481;-67
2023/09/14 12:23:42;;;;;;;2.00;1.80;;;;;;;;;;5072953;28;20541;-67
2023/09/14 12:26:11;;;;;;;4.80;1.40;;;;;;;;;;5072918;28;20538;-67
2023/09/14 12:28:38;;;;;;;3.00;1.50;;;;;;;;;;5072881;28;20470;-67
2023/09/14 12:31:05;;;;;;;2.00;1.37;;;;;;;;;;5073067;28;20542;-67
2023/09/14 12:33:32;;;;;;;2.50;1.47;;;;;;;;;;5072971;28;20530;-67
2023/09/14 12:36:00;;;;;;;4.37;1.63;;;;;;;;;;5072891;28;20443;-67
2023/09/14 12:38:31;;;;;;;2.33;1.50;;;;;;;;;;5072805;28;20439;-67
2023/09/14 12:40:58;;;;;;;2.20;1.63;;;;;;;;;;5072717;28;20530;-67
2023/09/14 12:43:25;;;;;;;3.50;1.60;;;;;;;;;;5072971;28;20474;-67
2023/09/14 12:45:53;;;;;;;1.53;1.43;;;;;;;;;;5072850;28;20450;-67
2023/09/14 12:48:20;;;;;;;3.27;1.27;;;;;;;;;;5072875;28;20444;-67
2023/09/14 12:50:47;;;;;;;1.40;1.27;;;;;;;;;;5072729;28;20500;-67
2023/09/14 12:53:16;;;;;;;1.60;1.50;;;;;;;;;;5072966;28;20447;-67
2023/09/14 12:55:45;;;;;;;1.13;1.03;;;;;;;;;;5072922;28;20978;-67
2023/09/14 12:58:12;;;;;;;2.73;1.20;;;;;;;;;;5072771;28;20471;-67
2023/09/14 13:00:39;;;;;;;1.87;1.77;;;;;;;;;;5072568;28;20474;-67
2023/09/14 13:03:09;;;;;;;2.27;1.30;;;;;;;;;;5072591;28;20479;-67
2023/09/14 13:05:36;;;;;;;1.70;1.37;;;;;;;;;;5072539;28;20531;-67
2023/09/14 13:08:04;;;;;;;1.80;1.60;;;;;;;;;;5072714;28;20807;-68
2023/09/14 13:10:33;;;;;;;1.40;1.30;;;;;;;;;;5072579;28;20439;-67
2023/09/14 13:13:05;;;;;;;2.87;1.63;;;;;;;;;;5072615;28;20439;-67
2023/09/14 13:15:32;;;;;;;3.03;1.63;;;;;;;;;;5072365;28;20466;-67
2023/09/14 13:18:00;;;;;;;3.70;1.63;;;;;;;;;;5072194;28;20450;-67
2023/09/14 13:20:30;;;;;;;1.37;1.20;;;;;;;;;;5072637;28;20443;-68
2023/09/14 13:22:57;;;;;;;3.10;1.60;;;;;;;;;;5072462;28;20479;-67
2023/09/14 13:25:25;;;;;;;1.97;1.30;;;;;;;;;;5072377;28;20449;-67
2023/09/14 13:27:53;;;;;;;2.10;1.40;;;;;;;;;;5072215;28;20448;-67
2023/09/14 13:30:20;;;;;;;3.63;2.00;;;;;;;;;;5072210;28;20478;-67
2023/09/14 13:32:48;;;;;;;2.10;1.30;;;;;;;;;;5072516;28;20447;-67
2023/09/14 13:35:15;;;;;;;2.93;1.77;;;;;;;;;;5072439;28;20449;-67
2023/09/14 13:37:43;;;;;;;1.43;1.33;;;;;;;;;;5072296;28;20447;-67
2023/09/14 13:40:18;;;;;;;1.50;1.40;;;;;;;;;;5074961;28;20454;-67
2023/09/14 13:42:45;;;;;;;2.10;1.60;;;;;;;;;;5075890;28;20564;-67
2023/09/14 13:45:14;;;;;;;1.70;1.30;;;;;;;;;;5076136;28;20443;-67
2023/09/14 13:47:41;;;;;;;2.83;1.97;;;;;;;;;;5075938;28;20479;-67
2023/09/14 13:50:08;;;;;;;2.17;1.33;;;;;;;;;;5075947;28;20443;-68
2023/09/14 13:52:35;;;;;;;2.07;1.53;;;;;;;;;;5075748;28;20530;-67
2023/09/14 13:55:04;;;;;;;5.80;2.20;;;;;;;;;;5075672;28;20439;-67
2023/09/14 13:57:31;;;;;;;1.47;1.37;;;;;;;;;;5076048;28;20494;-68
2023/09/14 13:59:57;;;;;;;2.10;1.40;;;;;;;;;;5075627;28;20477;-68
2023/09/14 14:02:26;;;;;;;3.17;1.63;;;;;;;;;;5075903;28;20569;-67
2023/09/14 14:04:53;;;;;;;1.80;1.70;;;;;;;;;;5075671;28;20443;-67
2023/09/14 14:07:19;;;;;;;2.10;1.40;;;;;;;;;;5075362;28;20897;-68
2023/09/14 14:09:46;;;;;;;1.90;1.40;;;;;;;;;;5075265;28;20877;-68
2023/09/14 14:12:13;;;;;;;2.17;1.30;;;;;;;;;;5075107;28;20450;-67
2023/09/14 14:14:40;;;;;;;2.67;1.50;;;;;;;;;;5075216;28;20525;-68
2023/09/14 14:17:07;;;;;;;2.60;1.77;;;;;;;;;;5075249;28;20859;-68
2023/09/14 14:19:36;;;;;;;4.47;1.30;;;;;;;;;;5075170;28;20443;-68
2023/09/14 14:22:02;;;;;;;1.40;1.30;;;;;;;;;;5074805;28;20989;-68
2023/09/14 14:24:31;;;;;;;2.00;1.40;;;;;;;;;;5074873;28;20454;-68
2023/09/14 14:26:58;;;;;;;2.23;1.57;;;;;;;;;;5075007;28;20509;-68
2023/09/14 14:29:25;;;;;;;3.10;1.60;;;;;;;;;;5075169;28;20440;-68
2023/09/14 14:31:52;;;;;;;1.90;1.63;;;;;;;;;;5075156;28;20538;-67
2023/09/14 14:34:19;;;;;;;1.60;1.50;;;;;;;;;;5075087;28;20443;-67
2023/09/14 14:36:48;;;;;;;4.40;2.17;;;;;;;;;;5074943;28;20450;-67
2023/09/14 14:39:15;;;;;;;2.00;1.30;;;;;;;;;;5074783;28;20444;-67
2023/09/14 14:41:42;;;;;;;2.13;1.60;;;;;;;;;;5074986;28;20883;-67
2023/09/14 14:44:09;;;;;;;1.50;1.40;;;;;;;;;;5074901;28;20448;-68
2023/09/14 14:46:36;;;;;;;1.63;1.47;;;;;;;;;;5074805;28;20475;-68